Time,TemperatureF,DewpointF,PressureIn,WindDirection,WindDirectionDegrees,WindSpeedMPH,WindSpeedGustMPH,Humidity,HourlyPrecipIn,Conditions,Clouds,dailyrainin,SolarRadiationWatts/m^2,SoftwareType,DateUTC
2013-01-01 00:02:00,7.1,3.5,30.22,WNW,291,0.0,0.0,85,0.00,CLR,,0.00,0.0,WeatherDisplay:10.37,2013-01-01 06:02:00,
2013-01-01 00:07:00,7.2,3.6,30.23,WNW,290,0.0,0.0,85,0.00,CLR,,0.00,0.0,WeatherDisplay:10.37,2013-01-01 06:07:00,
2013-01-01 00:12:00,7.3,3.7,30.23,WNW,291,0.0,0.0,85,0.00,CLR,,0.00,0.0,WeatherDisplay:10.37,2013-01-01 06:12:00,
2013-01-01 00:17:00,7.4,4.1,30.23,WNW,291,0.0,0.0,86,0.00,CLR,,0.00,0.0,WeatherDisplay:10.37,2013-01-01 06:17:00,
2013-01-01 00:22:00,7.5,3.9,30.23,WNW,291,0.0,0.0,85,0.00,CLR,,0.00,0.0,WeatherDisplay:10.37,2013-01-01 06:22:00,
2013-01-01 00:27:00,7.3,3.7,30.23,WNW,291,0.0,0.0,85,0.00,CLR,,0.00,0.0,WeatherDisplay:10.37,2013-01-01 06:27:00,
2013-01-01 00:32:00,7.0,3.4,30.24,WNW,291,0.0,0.0,85,0.00,CLR,,0.00,0.0,WeatherDisplay:10.37,2013-01-01 06:32:00,
2013-01-01 00:37:00,6.8,3.2,30.24,WNW,290,0.0,0.0,85,0.00,CLR,,0.00,0.0,WeatherDisplay:10.37,2013-01-01 06:37:00,
2013-01-01 00:42:00,6.6,3.0,30.24,WNW,290,0.0,0.0,85,0.00,CLR,,0.00,0.0,WeatherDisplay:10.37,2013-01-01 06:42:00,
2013-01-01 00:47:00,6.5,3.0,30.24,WNW,291,0.0,0.0,85,0.00,CLR,,0.00,0.0,WeatherDisplay:10.37,2013-01-01 06:47:00,
2013-01-01 00:52:00,6.5,3.0,30.24,WNW,291,0.0,0.0,85,0.00,CLR,,0.00,0.0,WeatherDisplay:10.37,2013-01-01 06:52:00,
2013-01-01 00:57:00,6.3,2.8,30.23,WNW,291,0.0,0.0,85,0.00,CLR,,0.00,0.0,WeatherDisplay:10.37,2013-01-01 06:57:00,
2013-01-01 01:02:00,6.3,2.8,30.23,WNW,291,0.0,0.0,85,0.00,CLR,,0.00,0.0,WeatherDisplay:10.37,2013-01-01 07:02:00,
2013-01-01 01:07:00,6.4,3.1,30.24,WNW,291,0.0,0.0,86,0.00,CLR,,0.00,0.0,WeatherDisplay:10.37,2013-01-01 07:07:00,
2013-01-01 01:12:00,6.6,3.3,30.24,WNW,291,0.0,0.0,86,0.00,CLR,,0.00,0.0,WeatherDisplay:10.37,2013-01-01 07:12:00,
2013-01-01 01:17:00,6.7,3.4,30.23,WNW,291,0.0,0.0,86,0.00,CLR,,0.00,0.0,WeatherDisplay:10.37,2013-01-01 07:17:00,
2013-01-01 01:22:00,6.7,3.4,30.23,WNW,290,0.0,0.0,86,0.00,CLR,,0.00,0.0,WeatherDisplay:10.37,2013-01-01 07:22:00,
2013-01-01 01:27:00,6.7,3.1,30.23,WNW,290,0.0,0.0,85,0.00,CLR,,0.00,0.0,WeatherDisplay:10.37,2013-01-01 07:27:00,
2013-01-01 01:32:00,6.6,3.0,30.24,WNW,291,0.0,0.0,85,0.00,CLR,,0.00,0.0,WeatherDisplay:10.37,2013-01-01 07:32:00,
2013-01-01 01:37:00,6.6,3.0,30.24,West,280,0.0,0.0,85,0.00,CLR,,0.00,0.0,WeatherDisplay:10.37,2013-01-01 07:37:00,
2013-01-01 01:42:00,6.6,3.0,30.24,West,279,0.0,0.0,85,0.00,CLR,,0.00,0.0,WeatherDisplay:10.37,2013-01-01 07:42:00,
2013-01-01 01:47:00,6.6,3.0,30.24,West,280,0.0,0.0,85,0.00,CLR,,0.00,0.0,WeatherDisplay:10.37,2013-01-01 07:47:00,
2013-01-01 01:52:00,6.7,3.1,30.24,West,279,0.0,0.0,85,0.00,CLR,,0.00,0.0,WeatherDisplay:10.37,2013-01-01 07:52:00,
2013-01-01 01:57:00,6.7,3.1,30.24,West,279,0.0,0.0,85,0.00,CLR,,0.00,0.0,WeatherDisplay:10.37,2013-01-01 07:57:00,
2013-01-01 02:02:00,6.7,3.1,30.24,West,280,0.0,0.0,85,0.00,CLR,,0.00,0.0,WeatherDisplay:10.37,2013-01-01 08:02:00,
2013-01-01 02:07:00,6.7,3.1,30.24,West,280,0.0,0.0,85,0.00,CLR,,0.00,0.0,WeatherDisplay:10.37,2013-01-01 08:07:00,
2013-01-01 02:12:00,6.7,3.1,30.25,West,280,0.0,0.0,85,0.00,CLR,,0.00,0.0,WeatherDisplay:10.37,2013-01-01 08:12:00,
2013-01-01 02:17:00,6.6,3.0,30.25,WNW,288,0.0,0.0,85,0.00,CLR,,0.00,0.0,WeatherDisplay:10.37,2013-01-01 08:17:00,
2013-01-01 02:22:00,6.6,2.8,30.25,WNW,288,0.0,0.0,84,0.00,CLR,,0.00,0.0,WeatherDisplay:10.37,2013-01-01 08:22:00,
2013-01-01 02:27:00,6.5,2.7,30.25,WNW,288,0.0,0.0,84,0.00,CLR,,0.00,0.0,WeatherDisplay:10.37,2013-01-01 08:27:00,
2013-01-01 02:32:00,6.2,2.4,30.25,WNW,287,0.0,0.0,84,0.00,CLR,,0.00,0.0,WeatherDisplay:10.37,2013-01-01 08:32:00,
2013-01-01 02:37:00,6.0,2.2,30.25,WNW,288,0.0,0.0,84,0.00,CLR,,0.00,0.0,WeatherDisplay:10.37,2013-01-01 08:37:00,
2013-01-01 02:42:00,5.7,1.9,30.25,WNW,288,0.0,0.0,84,0.00,CLR,,0.00,0.0,WeatherDisplay:10.37,2013-01-01 08:42:00,
2013-01-01 02:47:00,5.5,1.7,30.25,WNW,288,0.0,0.0,84,0.00,CLR,,0.00,0.0,WeatherDisplay:10.37,2013-01-01 08:47:00,
2013-01-01 02:52:00,5.3,1.5,30.25,WNW,287,0.0,0.0,84,0.00,CLR,,0.00,0.0,WeatherDisplay:10.37,2013-01-01 08:52:00,
2013-01-01 02:57:00,5.1,1.3,30.26,WNW,288,0.0,0.0,84,0.00,CLR,,0.00,0.0,WeatherDisplay:10.37,2013-01-01 08:57:00,
2013-01-01 03:02:00,5.0,1.2,30.25,WNW,288,0.0,0.0,84,0.00,CLR,,0.00,0.0,WeatherDisplay:10.37,2013-01-01 09:02:00,
2013-01-01 03:07:00,4.9,1.1,30.25,WNW,287,0.0,0.0,84,0.00,CLR,,0.00,0.0,WeatherDisplay:10.37,2013-01-01 09:07:00,
2013-01-01 03:12:00,4.8,1.0,30.25,WNW,288,0.0,0.0,84,0.00,CLR,,0.00,0.0,WeatherDisplay:10.37,2013-01-01 09:12:00,
2013-01-01 03:17:00,4.8,1.0,30.25,WNW,287,0.0,0.0,84,0.00,CLR,,0.00,0.0,WeatherDisplay:10.37,2013-01-01 09:17:00,
2013-01-01 03:22:00,4.7,1.2,30.25,WNW,287,0.0,0.0,85,0.00,CLR,,0.00,0.0,WeatherDisplay:10.37,2013-01-01 09:22:00,
2013-01-01 03:27:00,4.6,1.1,30.26,WNW,288,0.0,0.0,85,0.00,CLR,,0.00,0.0,WeatherDisplay:10.37,2013-01-01 09:27:00,
2013-01-01 03:32:00,4.5,1.0,30.26,WNW,288,0.0,0.0,85,0.00,CLR,,0.00,0.0,WeatherDisplay:10.37,2013-01-01 09:32:00,
2013-01-01 03:37:00,4.4,0.9,30.26,WNW,288,0.0,0.0,85,0.00,CLR,,0.00,0.0,WeatherDisplay:10.37,2013-01-01 09:37:00,
2013-01-01 03:42:00,4.3,0.8,30.26,WNW,287,0.0,0.0,85,0.00,CLR,,0.00,0.0,WeatherDisplay:10.37,2013-01-01 09:42:00,
2013-01-01 03:47:00,4.1,0.6,30.26,WNW,288,0.0,0.0,85,0.00,CLR,,0.00,0.0,WeatherDisplay:10.37,2013-01-01 09:47:00,
2013-01-01 03:52:00,3.9,0.4,30.26,WNW,287,0.0,0.0,85,0.00,CLR,,0.00,0.0,WeatherDisplay:10.37,2013-01-01 09:52:00,
2013-01-01 03:57:00,3.7,0.2,30.26,WNW,288,0.0,0.0,85,0.00,CLR,,0.00,0.0,WeatherDisplay:10.37,2013-01-01 09:57:00,
2013-01-01 04:02:00,3.5,0.0,30.27,WNW,288,0.0,0.0,85,0.00,CLR,,0.00,0.0,WeatherDisplay:10.37,2013-01-01 10:02:00,
2013-01-01 04:07:00,3.4,-0.1,30.26,WNW,288,0.0,0.0,85,0.00,CLR,,0.00,0.0,WeatherDisplay:10.37,2013-01-01 10:07:00,
2013-01-01 04:12:00,3.4,-0.1,30.27,WNW,288,0.0,0.0,85,0.00,CLR,,0.00,0.0,WeatherDisplay:10.37,2013-01-01 10:12:00,
2013-01-01 04:17:00,3.4,-0.1,30.26,WNW,288,0.0,0.0,85,0.00,CLR,,0.00,0.0,WeatherDisplay:10.37,2013-01-01 10:17:00,
2013-01-01 04:22:00,3.3,-0.2,30.26,WNW,288,0.0,0.0,85,0.00,CLR,,0.00,0.0,WeatherDisplay:10.37,2013-01-01 10:22:00,
2013-01-01 04:28:00,3.2,-0.3,30.27,WNW,287,0.0,0.0,85,0.00,CLR,,0.00,0.0,WeatherDisplay:10.37,2013-01-01 10:28:00,
2013-01-01 04:33:00,3.1,-0.1,30.27,WNW,287,0.0,0.0,86,0.00,CLR,,0.00,0.0,WeatherDisplay:10.37,2013-01-01 10:33:00,
2013-01-01 04:38:00,2.9,-0.6,30.26,WNW,288,0.0,0.0,85,0.00,CLR,,0.00,0.0,WeatherDisplay:10.37,2013-01-01 10:38:00,
2013-01-01 04:43:00,2.5,-1.0,30.26,WNW,288,0.0,0.0,85,0.00,CLR,,0.00,0.0,WeatherDisplay:10.37,2013-01-01 10:43:00,
2013-01-01 04:48:00,2.2,-1.3,30.26,WNW,288,0.0,0.0,85,0.00,CLR,,0.00,0.0,WeatherDisplay:10.37,2013-01-01 10:48:00,
2013-01-01 04:53:00,1.9,-1.6,30.27,WNW,287,0.0,0.0,85,0.00,CLR,,0.00,0.0,WeatherDisplay:10.37,2013-01-01 10:53:00,
2013-01-01 04:58:00,1.6,-1.9,30.27,WNW,288,0.0,0.0,85,0.00,CLR,,0.00,0.0,WeatherDisplay:10.37,2013-01-01 10:58:00,
2013-01-01 05:03:00,1.3,-2.2,30.27,WNW,288,0.0,0.0,85,0.00,CLR,,0.00,0.0,WeatherDisplay:10.37,2013-01-01 11:03:00,
2013-01-01 05:08:00,1.1,-2.4,30.28,WNW,288,0.0,0.0,85,0.00,CLR,,0.00,0.0,WeatherDisplay:10.37,2013-01-01 11:08:00,
2013-01-01 05:13:00,0.9,-2.6,30.28,WNW,288,0.0,0.0,85,0.00,CLR,,0.00,0.0,WeatherDisplay:10.37,2013-01-01 11:13:00,
2013-01-01 05:18:00,0.7,-2.7,30.28,WNW,288,0.0,0.0,85,0.00,CLR,,0.00,0.0,WeatherDisplay:10.37,2013-01-01 11:18:00,
2013-01-01 05:24:00,0.6,-2.8,30.29,WNW,288,0.0,0.0,85,0.00,CLR,,0.00,0.0,WeatherDisplay:10.37,2013-01-01 11:24:00,
2013-01-01 05:29:00,0.5,-2.9,30.29,WNW,287,0.0,0.0,85,0.00,CLR,,0.00,0.0,WeatherDisplay:10.37,2013-01-01 11:29:00,
2013-01-01 05:34:00,0.3,-3.1,30.29,WNW,288,0.0,0.0,85,0.00,CLR,,0.00,0.0,WeatherDisplay:10.37,2013-01-01 11:34:00,
2013-01-01 05:39:00,0.2,-3.2,30.29,WNW,288,0.0,0.0,85,0.00,CLR,,0.00,0.0,WeatherDisplay:10.37,2013-01-01 11:39:00,
2013-01-01 05:44:00,0.2,-3.0,30.30,WNW,287,0.0,0.0,86,0.00,CLR,,0.00,0.0,WeatherDisplay:10.37,2013-01-01 11:44:00,
2013-01-01 05:49:00,0.1,-3.1,30.30,WNW,287,0.0,0.0,86,0.00,CLR,,0.00,0.0,WeatherDisplay:10.37,2013-01-01 11:49:00,
2013-01-01 05:54:00,0.1,-3.3,30.29,WNW,287,0.0,0.0,85,0.00,CLR,,0.00,0.0,WeatherDisplay:10.37,2013-01-01 11:54:00,
2013-01-01 05:59:00,0.0,-3.2,30.29,WNW,288,0.0,0.0,86,0.00,CLR,,0.00,0.0,WeatherDisplay:10.37,2013-01-01 11:59:00,
2013-01-01 06:04:00,0.0,-3.2,30.30,WNW,288,0.0,0.0,86,0.00,CLR,,0.00,0.0,WeatherDisplay:10.37,2013-01-01 12:04:00,
2013-01-01 06:09:00,0.0,-3.2,30.30,WNW,288,0.0,0.0,86,0.00,CLR,,0.00,0.0,WeatherDisplay:10.37,2013-01-01 12:09:00,
2013-01-01 06:14:00,0.0,-3.2,30.30,WNW,288,0.0,0.0,86,0.00,CLR,,0.00,0.0,WeatherDisplay:10.37,2013-01-01 12:14:00,
2013-01-01 06:19:00,0.1,-3.1,30.31,WNW,288,0.0,0.0,86,0.00,CLR,,0.00,0.0,WeatherDisplay:10.37,2013-01-01 12:19:00,
2013-01-01 06:24:00,0.4,-2.8,30.30,WNW,287,0.0,0.0,86,0.00,CLR,,0.00,0.0,WeatherDisplay:10.37,2013-01-01 12:24:00,
2013-01-01 06:29:00,0.6,-2.6,30.30,WNW,288,0.0,0.0,86,0.00,CLR,,0.00,0.0,WeatherDisplay:10.37,2013-01-01 12:29:00,
2013-01-01 06:34:00,0.7,-2.5,30.31,WNW,288,0.0,0.0,86,0.00,CLR,,0.00,0.0,WeatherDisplay:10.37,2013-01-01 12:34:00,
2013-01-01 06:39:00,0.8,-2.4,30.31,WNW,288,0.0,0.0,86,0.00,CLR,,0.00,0.0,WeatherDisplay:10.37,2013-01-01 12:39:00,
2013-01-01 06:44:00,0.7,-2.5,30.32,WNW,288,0.0,0.0,86,0.00,CLR,,0.00,0.0,WeatherDisplay:10.37,2013-01-01 12:44:00,
2013-01-01 06:49:00,0.5,-2.7,30.31,WNW,287,0.0,0.0,86,0.00,CLR,,0.00,0.0,WeatherDisplay:10.37,2013-01-01 12:49:00,
2013-01-01 06:54:00,0.1,-3.1,30.31,WNW,288,0.0,0.0,86,0.00,CLR,,0.00,0.0,WeatherDisplay:10.37,2013-01-01 12:54:00,
2013-01-01 06:59:00,-0.1,-3.3,30.31,WNW,288,0.0,0.0,86,0.00,CLR,,0.00,0.0,WeatherDisplay:10.37,2013-01-01 12:59:00,
2013-01-01 07:04:00,-0.4,-3.6,30.31,WNW,287,0.0,0.0,86,0.00,OVC,,0.00,0.0,WeatherDisplay:10.37,2013-01-01 13:04:00,
2013-01-01 07:09:00,-0.5,-3.7,30.32,WNW,287,0.0,0.0,86,0.00,OVC,,0.00,0.0,WeatherDisplay:10.37,2013-01-01 13:09:00,
2013-01-01 07:14:00,-0.6,-3.8,30.32,WNW,288,0.0,0.0,86,0.00,OVC,,0.00,0.0,WeatherDisplay:10.37,2013-01-01 13:14:00,
2013-01-01 07:19:00,-0.7,-3.9,30.33,WNW,288,0.0,0.0,86,0.00,OVC,,0.00,0.0,WeatherDisplay:10.37,2013-01-01 13:19:00,
2013-01-01 07:24:00,-0.8,-4.0,30.33,WNW,288,0.0,0.0,86,0.00,OVC,,0.00,0.0,WeatherDisplay:10.37,2013-01-01 13:24:00,
2013-01-01 07:29:00,-0.9,-4.1,30.33,WNW,288,0.0,0.0,86,0.00,OVC,,0.00,0.0,WeatherDisplay:10.37,2013-01-01 13:29:00,
2013-01-01 07:34:00,-0.9,-4.1,30.33,WNW,288,0.0,0.0,86,0.00,BKN,,0.00,5.0,WeatherDisplay:10.37,2013-01-01 13:34:00,
2013-01-01 07:39:00,-1.0,-4.2,30.33,WNW,287,0.0,0.0,86,0.00,BKN,,0.00,7.0,WeatherDisplay:10.37,2013-01-01 13:39:00,
2013-01-01 07:44:00,-1.1,-4.3,30.33,WNW,287,0.0,0.0,86,0.00,BKN,,0.00,9.0,WeatherDisplay:10.37,2013-01-01 13:44:00,
2013-01-01 07:49:00,-1.1,-4.3,30.33,WNW,288,0.0,0.0,86,0.00,BKN,,0.00,11.0,WeatherDisplay:10.37,2013-01-01 13:49:00,
2013-01-01 07:54:00,-1.1,-4.3,30.33,WNW,288,0.0,0.0,86,0.00,BKN,,0.00,12.0,WeatherDisplay:10.37,2013-01-01 13:54:00,
2013-01-01 07:59:00,-0.9,-4.1,30.34,WNW,288,0.0,0.0,86,0.00,BKN,,0.00,14.0,WeatherDisplay:10.37,2013-01-01 13:59:00,
2013-01-01 08:04:00,-0.8,-4.0,30.34,WNW,288,0.0,0.0,86,0.00,BKN,,0.00,16.0,WeatherDisplay:10.37,2013-01-01 14:04:00,
2013-01-01 08:09:00,-0.8,-4.0,30.33,WNW,288,0.0,0.0,86,0.00,BKN,,0.00,16.0,WeatherDisplay:10.37,2013-01-01 14:09:00,
2013-01-01 08:15:00,-0.6,-3.8,30.33,WNW,288,0.0,0.0,86,0.00,BKN,,0.00,18.0,WeatherDisplay:10.37,2013-01-01 14:15:00,
2013-01-01 08:20:00,-0.3,-3.5,30.33,WNW,287,0.0,0.0,86,0.00,BKN,,0.00,18.0,WeatherDisplay:10.37,2013-01-01 14:20:00,
2013-01-01 08:25:00,0.1,-3.1,30.33,WNW,287,0.0,0.0,86,0.00,BKN,,0.00,19.0,WeatherDisplay:10.37,2013-01-01 14:25:00,
2013-01-01 08:30:00,0.5,-2.5,30.34,WNW,289,0.0,0.0,87,0.00,BKN,,0.00,19.0,WeatherDisplay:10.37,2013-01-01 14:30:00,
2013-01-01 08:35:00,0.7,-2.5,30.34,WNW,289,0.0,0.0,86,0.00,BKN,,0.00,21.0,WeatherDisplay:10.37,2013-01-01 14:35:00,
2013-01-01 08:40:00,1.0,-1.9,30.34,WNW,289,0.0,0.0,87,0.00,BKN,,0.00,23.0,WeatherDisplay:10.37,2013-01-01 14:40:00,
2013-01-01 08:45:00,1.3,-1.7,30.34,WNW,289,0.0,0.0,87,0.00,BKN,,0.00,25.0,WeatherDisplay:10.37,2013-01-01 14:45:00,
2013-01-01 08:50:00,1.5,-1.7,30.34,WNW,289,0.0,0.0,86,0.00,BKN,,0.00,25.0,WeatherDisplay:10.37,2013-01-01 14:50:00,
2013-01-01 08:55:00,1.8,-1.2,30.33,WNW,289,0.0,0.0,87,0.00,BKN,,0.00,26.0,WeatherDisplay:10.37,2013-01-01 14:55:00,
2013-01-01 09:00:00,2.1,-0.9,30.33,WNW,289,0.0,0.0,87,0.00,BKN,,0.00,26.0,WeatherDisplay:10.37,2013-01-01 15:00:00,
2013-01-01 09:05:00,2.4,-0.8,30.33,WNW,289,0.0,0.0,86,0.00,BKN,,0.00,28.0,WeatherDisplay:10.37,2013-01-01 15:05:00,
2013-01-01 09:10:00,2.6,-0.6,30.34,WNW,289,0.0,0.0,86,0.00,BKN,,0.00,32.0,WeatherDisplay:10.37,2013-01-01 15:10:00,
2013-01-01 09:15:00,2.8,-0.4,30.34,WNW,289,0.0,0.0,86,0.00,BKN,,0.00,37.0,WeatherDisplay:10.37,2013-01-01 15:15:00,
2013-01-01 09:20:00,2.9,-0.3,30.33,SW,219,0.0,0.0,86,0.00,BKN,,0.00,42.0,WeatherDisplay:10.37,2013-01-01 15:20:00,
2013-01-01 09:25:00,3.3,0.1,30.33,SW,219,0.0,0.0,86,0.00,BKN,,0.00,60.0,WeatherDisplay:10.37,2013-01-01 15:25:00,
2013-01-01 09:30:00,3.7,0.4,30.32,SW,219,0.0,0.0,86,0.00,BKN,,0.00,116.0,WeatherDisplay:10.37,2013-01-01 15:30:00,
2013-01-01 09:35:00,4.0,0.7,30.32,SW,219,0.0,0.0,86,0.00,BKN,,0.00,163.0,WeatherDisplay:10.37,2013-01-01 15:35:00,
2013-01-01 09:40:00,4.2,0.9,30.32,SW,219,0.0,0.0,86,0.00,SCT,,0.00,137.0,WeatherDisplay:10.37,2013-01-01 15:40:00,
2013-01-01 09:45:00,4.5,1.2,30.32,WNW,286,2.3,2.3,86,0.00,BKN,,0.00,49.0,WeatherDisplay:10.37,2013-01-01 15:45:00,
2013-01-01 09:50:00,4.8,1.3,30.32,WNW,285,0.0,0.0,85,0.00,BKN,,0.00,86.0,WeatherDisplay:10.37,2013-01-01 15:50:00,
2013-01-01 09:55:00,5.0,1.5,30.32,WNW,285,0.0,0.0,85,0.00,BKN,,0.00,60.0,WeatherDisplay:10.37,2013-01-01 15:55:00,
2013-01-01 10:00:00,5.3,1.8,30.32,WNW,285,0.0,0.0,85,0.00,BKN,,0.00,60.0,WeatherDisplay:10.37,2013-01-01 16:00:00,
2013-01-01 10:05:00,5.5,2.0,30.32,West,266,0.0,0.0,85,0.00,BKN,,0.00,56.0,WeatherDisplay:10.37,2013-01-01 16:05:00,
2013-01-01 10:10:00,5.9,2.4,30.32,SW,221,0.0,0.0,85,0.00,BKN,,0.00,47.0,WeatherDisplay:10.37,2013-01-01 16:10:00,
2013-01-01 10:15:00,6.2,2.4,30.32,SW,235,0.0,0.0,84,0.00,BKN,,0.00,74.0,WeatherDisplay:10.37,2013-01-01 16:15:00,
2013-01-01 10:20:00,6.6,2.8,30.31,SSW,207,2.3,2.3,84,0.00,BKN,,0.00,109.0,WeatherDisplay:10.37,2013-01-01 16:20:00,
2013-01-01 10:25:00,6.8,2.7,30.31,SSW,211,1.1,1.1,83,0.00,BKN,,0.00,165.0,WeatherDisplay:10.37,2013-01-01 16:25:00,
2013-01-01 10:30:00,7.1,3.0,30.31,SSW,210,0.0,0.0,83,0.00,SCT,,0.00,195.0,WeatherDisplay:10.37,2013-01-01 16:30:00,
2013-01-01 10:35:00,7.4,3.3,30.31,West,268,1.1,0.0,83,0.00,SCT,,0.00,69.0,WeatherDisplay:10.37,2013-01-01 16:35:00,
2013-01-01 10:40:00,7.9,3.5,30.30,West,268,1.1,0.0,82,0.00,SCT,,0.00,188.0,WeatherDisplay:10.37,2013-01-01 16:40:00,
2013-01-01 10:45:00,8.3,3.7,30.30,West,268,0.0,0.0,81,0.00,SCT,,0.00,373.0,WeatherDisplay:10.37,2013-01-01 16:45:00,
2013-01-01 10:50:00,8.4,3.8,30.30,West,264,0.0,0.0,81,0.00,CLR,,0.00,371.0,WeatherDisplay:10.37,2013-01-01 16:50:00,
2013-01-01 10:55:00,8.8,3.9,30.30,West,263,0.0,0.0,80,0.00,CLR,,0.00,243.0,WeatherDisplay:10.37,2013-01-01 16:55:00,
2013-01-01 11:00:00,9.1,4.2,30.30,WNW,296,0.0,0.0,80,0.00,FEW,,0.00,139.0,WeatherDisplay:10.37,2013-01-01 17:00:00,
2013-01-01 11:05:00,9.1,3.9,30.30,WNW,282,0.0,0.0,79,0.00,SCT,,0.00,165.0,WeatherDisplay:10.37,2013-01-01 17:05:00,
2013-01-01 11:10:00,9.4,4.2,30.30,WNW,282,1.0,1.0,79,0.00,BKN,,0.00,142.0,WeatherDisplay:10.37,2013-01-01 17:10:00,
2013-01-01 11:15:00,9.3,4.1,30.30,SSW,209,3.5,3.5,79,0.00,BKN,,0.00,134.0,WeatherDisplay:10.37,2013-01-01 17:15:00,
2013-01-01 11:20:00,9.2,4.0,30.30,West,270,2.3,2.3,79,0.00,BKN,,0.00,97.0,WeatherDisplay:10.37,2013-01-01 17:20:00,
2013-01-01 11:25:00,9.4,3.9,30.30,SW,222,2.3,2.3,78,0.00,BKN,,0.00,77.0,WeatherDisplay:10.37,2013-01-01 17:25:00,
2013-01-01 11:30:00,9.7,4.2,30.30,SW,216,2.3,2.3,78,0.00,BKN,,0.00,46.0,WeatherDisplay:10.37,2013-01-01 17:30:00,
2013-01-01 11:35:00,9.7,4.2,30.30,SW,216,0.0,0.0,78,0.00,BKN,,0.00,84.0,WeatherDisplay:10.37,2013-01-01 17:35:00,
2013-01-01 11:40:00,9.7,3.9,30.30,SSE,158,3.5,0.0,77,0.00,BKN,,0.00,76.0,WeatherDisplay:10.37,2013-01-01 17:40:00,
2013-01-01 11:45:00,10.0,4.2,30.30,SSW,202,2.3,2.3,77,0.00,BKN,,0.00,111.0,WeatherDisplay:10.37,2013-01-01 17:45:00,
2013-01-01 11:50:00,10.0,4.2,30.30,SW,225,0.0,0.0,77,0.00,BKN,,0.00,139.0,WeatherDisplay:10.37,2013-01-01 17:50:00,
2013-01-01 11:55:00,10.6,4.5,30.30,WSW,250,0.0,0.0,76,0.00,BKN,,0.00,81.0,WeatherDisplay:10.37,2013-01-01 17:55:00,
2013-01-01 12:00:00,10.7,4.6,30.30,SSW,210,0.0,0.0,76,0.00,BKN,,0.00,113.0,WeatherDisplay:10.37,2013-01-01 18:00:00,
2013-01-01 12:05:00,10.9,4.8,30.29,WNW,298,0.0,0.0,76,0.00,BKN,,0.00,318.0,WeatherDisplay:10.37,2013-01-01 18:05:00,
2013-01-01 12:10:00,11.3,5.2,30.29,SW,223,1.1,0.0,76,0.00,SCT,,0.00,334.0,WeatherDisplay:10.37,2013-01-01 18:10:00,
2013-01-01 12:15:00,11.5,5.1,30.29,SSW,213,0.0,0.0,75,0.00,CLR,,0.00,346.0,WeatherDisplay:10.37,2013-01-01 18:15:00,
2013-01-01 12:20:00,11.7,5.0,30.29,SSW,213,3.5,3.5,74,0.00,CLR,,0.00,281.0,WeatherDisplay:10.37,2013-01-01 18:20:00,
2013-01-01 12:25:00,11.6,4.9,30.29,SW,224,3.5,3.5,74,0.00,CLR,,0.00,357.0,WeatherDisplay:10.37,2013-01-01 18:25:00,
2013-01-01 12:30:00,11.8,5.1,30.28,SW,214,3.5,3.5,74,0.00,CLR,,0.00,496.0,WeatherDisplay:10.37,2013-01-01 18:30:00,
2013-01-01 12:35:00,12.1,5.4,30.29,SW,232,2.3,2.3,74,0.00,CLR,,0.00,503.0,WeatherDisplay:10.37,2013-01-01 18:35:00,
2013-01-01 12:40:00,12.1,5.1,30.29,SW,227,2.3,0.0,73,0.00,CLR,,0.00,506.0,WeatherDisplay:10.37,2013-01-01 18:40:00,
2013-01-01 12:45:00,12.5,5.2,30.28,SW,218,2.3,2.3,72,0.00,CLR,,0.00,506.0,WeatherDisplay:10.37,2013-01-01 18:45:00,
2013-01-01 12:50:00,12.8,5.8,30.28,SSW,194,4.6,4.6,73,0.00,CLR,,0.00,506.0,WeatherDisplay:10.37,2013-01-01 18:50:00,
2013-01-01 12:55:00,12.9,5.6,30.28,WSW,239,1.1,0.0,72,0.00,CLR,,0.00,394.0,WeatherDisplay:10.37,2013-01-01 18:55:00,
2013-01-01 13:00:00,13.4,6.4,30.28,SW,232,0.0,0.0,73,0.00,CLR,,0.00,492.0,WeatherDisplay:10.37,2013-01-01 19:00:00,
2013-01-01 13:05:00,13.8,6.4,30.28,SW,235,3.5,0.0,72,0.00,CLR,,0.00,438.0,WeatherDisplay:10.37,2013-01-01 19:05:00,
2013-01-01 13:10:00,14.4,7.0,30.28,WNW,283,0.0,0.0,72,0.00,CLR,,0.00,309.0,WeatherDisplay:10.37,2013-01-01 19:10:00,
2013-01-01 13:15:00,14.5,6.8,30.28,SW,220,0.0,0.0,71,0.00,CLR,,0.00,158.0,WeatherDisplay:10.37,2013-01-01 19:15:00,
2013-01-01 13:20:00,14.5,6.8,30.28,SW,217,0.0,0.0,71,0.00,CLR,,0.00,283.0,WeatherDisplay:10.37,2013-01-01 19:20:00,
2013-01-01 13:25:00,14.4,6.7,30.28,SW,218,0.0,0.0,71,0.00,CLR,,0.00,462.0,WeatherDisplay:10.37,2013-01-01 19:25:00,
2013-01-01 13:30:00,14.4,7.0,30.28,SW,218,2.0,2.0,72,0.00,CLR,,0.00,148.0,WeatherDisplay:10.37,2013-01-01 19:30:00,
2013-01-01 13:35:00,14.5,6.8,30.27,SW,219,0.0,0.7,71,0.00,CLR,,0.00,232.0,WeatherDisplay:10.37,2013-01-01 19:35:00,
2013-01-01 13:40:00,14.9,7.2,30.27,WSW,240,0.0,0.3,71,0.00,CLR,,0.00,359.0,WeatherDisplay:10.37,2013-01-01 19:40:00,
2013-01-01 13:45:00,15.0,7.0,30.27,SSW,202,0.0,0.0,70,0.00,CLR,,0.00,399.0,WeatherDisplay:10.37,2013-01-01 19:45:00,
2013-01-01 13:50:00,14.7,6.7,30.27,SW,221,0.0,0.0,70,0.00,CLR,,0.00,376.0,WeatherDisplay:10.37,2013-01-01 19:50:00,
2013-01-01 13:55:00,14.7,7.0,30.27,SW,232,1.1,1.1,71,0.00,CLR,,0.00,338.0,WeatherDisplay:10.37,2013-01-01 19:55:00,
2013-01-01 14:00:00,14.2,6.2,30.27,SSW,213,1.1,1.1,70,0.00,CLR,,0.00,388.0,WeatherDisplay:10.37,2013-01-01 20:00:00,
2013-01-01 14:05:00,14.2,6.5,30.27,SSW,201,3.0,3.0,71,0.00,CLR,,0.00,390.0,WeatherDisplay:10.37,2013-01-01 20:05:00,
2013-01-01 14:10:00,14.4,6.7,30.27,SSW,201,1.1,1.1,71,0.00,CLR,,0.00,392.0,WeatherDisplay:10.37,2013-01-01 20:10:00,
2013-01-01 14:15:00,14.6,6.6,30.26,SSW,200,2.3,2.3,70,0.00,CLR,,0.00,373.0,WeatherDisplay:10.37,2013-01-01 20:15:00,
2013-01-01 14:20:00,14.4,6.4,30.27,SSW,201,0.0,0.0,70,0.00,CLR,,0.00,290.0,WeatherDisplay:10.37,2013-01-01 20:20:00,
2013-01-01 14:25:00,14.2,6.5,30.27,SW,221,0.0,0.0,71,0.00,CLR,,0.00,179.0,WeatherDisplay:10.37,2013-01-01 20:25:00,
2013-01-01 14:30:00,13.9,5.6,30.27,SSW,210,2.3,2.3,69,0.00,CLR,,0.00,200.0,WeatherDisplay:10.37,2013-01-01 20:30:00,
2013-01-01 14:35:00,13.6,5.9,30.27,South,174,3.5,0.0,71,0.00,CLR,,0.00,306.0,WeatherDisplay:10.37,2013-01-01 20:35:00,
2013-01-01 14:40:00,13.7,6.0,30.27,SSW,213,1.1,1.1,71,0.00,CLR,,0.00,239.0,WeatherDisplay:10.37,2013-01-01 20:40:00,
2013-01-01 14:45:00,13.7,5.7,30.27,SSW,198,2.3,2.3,70,0.00,CLR,,0.00,155.0,WeatherDisplay:10.37,2013-01-01 20:45:00,
2013-01-01 14:50:00,13.5,5.5,30.27,SW,230,3.5,3.5,70,0.00,FEW,,0.00,127.0,WeatherDisplay:10.37,2013-01-01 20:50:00,
2013-01-01 14:55:00,13.5,5.5,30.27,SW,220,4.6,4.6,70,0.00,SCT,,0.00,93.0,WeatherDisplay:10.37,2013-01-01 20:55:00,
2013-01-01 15:00:00,13.4,5.4,30.27,SSW,212,0.0,0.0,70,0.00,SCT,,0.00,72.0,WeatherDisplay:10.37,2013-01-01 21:00:00,
2013-01-01 15:05:00,13.2,5.2,30.27,SW,218,2.3,2.3,70,0.00,BKN,,0.00,46.0,WeatherDisplay:10.37,2013-01-01 21:05:00,
2013-01-01 15:10:00,13.1,5.1,30.27,West,266,1.1,1.1,70,0.00,BKN,,0.00,95.0,WeatherDisplay:10.37,2013-01-01 21:10:00,
2013-01-01 15:15:00,12.9,5.0,30.27,SSW,210,4.6,4.6,70,0.00,SCT,,0.00,104.0,WeatherDisplay:10.37,2013-01-01 21:15:00,
2013-01-01 15:20:00,12.9,5.3,30.27,SSW,209,0.0,0.4,71,0.00,SCT,,0.00,49.0,WeatherDisplay:10.37,2013-01-01 21:20:00,
2013-01-01 15:25:00,12.7,4.8,30.27,SSW,211,3.5,3.5,70,0.00,SCT,,0.00,54.0,WeatherDisplay:10.37,2013-01-01 21:25:00,
2013-01-01 15:30:00,12.6,4.7,30.27,SW,220,1.1,1.1,70,0.00,BKN,,0.00,35.0,WeatherDisplay:10.37,2013-01-01 21:30:00,
2013-01-01 15:35:00,12.5,4.6,30.26,SSW,205,3.5,3.5,70,0.00,BKN,,0.00,26.0,WeatherDisplay:10.37,2013-01-01 21:35:00,
2013-01-01 15:40:00,12.3,4.4,30.26,SSW,204,3.5,3.5,70,0.00,BKN,,0.00,19.0,WeatherDisplay:10.37,2013-01-01 21:40:00,
2013-01-01 15:45:00,12.1,4.2,30.26,SSW,198,1.0,1.0,70,0.00,BKN,,0.00,23.0,WeatherDisplay:10.37,2013-01-01 21:45:00,
2013-01-01 15:50:00,12.0,4.1,30.26,SW,220,3.5,3.5,70,0.00,BKN,,0.00,18.0,WeatherDisplay:10.37,2013-01-01 21:50:00,
2013-01-01 15:55:00,11.9,4.0,30.26,SSW,196,0.0,0.0,70,0.00,BKN,,0.00,16.0,WeatherDisplay:10.37,2013-01-01 21:55:00,
2013-01-01 16:00:00,11.8,3.9,30.26,SW,225,1.1,1.1,70,0.00,BKN,,0.00,16.0,WeatherDisplay:10.37,2013-01-01 22:00:00,
2013-01-01 16:05:00,11.7,4.1,30.26,NW,311,3.5,3.5,71,0.00,BKN,,0.00,12.0,WeatherDisplay:10.37,2013-01-01 22:05:00,
2013-01-01 16:10:00,11.5,3.9,30.27,SW,223,2.3,0.0,71,0.00,BKN,,0.00,11.0,WeatherDisplay:10.37,2013-01-01 22:10:00,
2013-01-01 16:15:00,11.4,4.1,30.26,SW,221,2.3,2.3,72,0.00,BKN,,0.00,9.0,WeatherDisplay:10.37,2013-01-01 22:15:00,
2013-01-01 16:20:00,11.3,3.7,30.26,SW,227,3.5,3.5,71,0.00,BKN,,0.00,7.0,WeatherDisplay:10.37,2013-01-01 22:20:00,
2013-01-01 16:25:00,11.1,3.8,30.26,SSW,204,1.0,1.0,72,0.00,SCT,,0.00,5.0,WeatherDisplay:10.37,2013-01-01 22:25:00,
2013-01-01 16:30:00,10.9,3.6,30.26,SSW,208,2.3,0.0,72,0.00,OVC,,0.00,0.0,WeatherDisplay:10.37,2013-01-01 22:30:00,
2013-01-01 16:35:00,10.7,3.4,30.27,West,267,0.0,0.0,72,0.00,OVC,,0.00,0.0,WeatherDisplay:10.37,2013-01-01 22:35:00,
2013-01-01 16:40:00,10.5,3.6,30.27,SSW,210,1.1,1.1,73,0.00,OVC,,0.00,0.0,WeatherDisplay:10.37,2013-01-01 22:40:00,
2013-01-01 16:45:00,10.3,3.4,30.26,SSW,210,0.0,0.0,73,0.00,OVC,,0.00,0.0,WeatherDisplay:10.37,2013-01-01 22:45:00,
2013-01-01 16:50:00,10.0,3.4,30.26,SSW,210,0.0,0.0,74,0.00,OVC,,0.00,0.0,WeatherDisplay:10.37,2013-01-01 22:50:00,
2013-01-01 16:55:00,10.0,3.4,30.26,SSW,210,0.0,0.0,74,0.00,OVC,,0.00,0.0,WeatherDisplay:10.37,2013-01-01 22:55:00,
2013-01-01 17:00:00,9.7,3.1,30.26,SSW,210,0.0,0.0,74,0.00,CLR,,0.00,0.0,WeatherDisplay:10.37,2013-01-01 23:00:00,
2013-01-01 17:05:00,9.5,2.9,30.26,SSW,210,0.0,0.0,74,0.00,CLR,,0.00,0.0,WeatherDisplay:10.37,2013-01-01 23:05:00,
2013-01-01 17:10:00,9.2,2.6,30.26,SSW,210,0.0,0.0,74,0.00,CLR,,0.00,0.0,WeatherDisplay:10.37,2013-01-01 23:10:00,
2013-01-01 17:15:00,9.0,2.4,30.26,SSW,210,0.0,0.0,74,0.00,CLR,,0.00,0.0,WeatherDisplay:10.37,2013-01-01 23:15:00,
2013-01-01 17:20:00,8.9,2.6,30.26,SSW,210,0.0,0.0,75,0.00,CLR,,0.00,0.0,WeatherDisplay:10.37,2013-01-01 23:20:00,
2013-01-01 17:25:00,8.7,2.4,30.26,SSW,210,0.0,0.0,75,0.00,CLR,,0.00,0.0,WeatherDisplay:10.37,2013-01-01 23:25:00,
2013-01-01 17:30:00,8.6,2.3,30.26,SSW,210,0.0,0.0,75,0.00,CLR,,0.00,0.0,WeatherDisplay:10.37,2013-01-01 23:30:00,
2013-01-01 17:35:00,8.4,2.1,30.26,SSW,210,0.0,0.0,75,0.00,CLR,,0.00,0.0,WeatherDisplay:10.37,2013-01-01 23:35:00,
2013-01-01 17:40:00,8.2,2.2,30.26,SSW,210,0.0,0.0,76,0.00,CLR,,0.00,0.0,WeatherDisplay:10.37,2013-01-01 23:40:00,
2013-01-01 17:45:00,8.1,2.1,30.26,SSW,210,0.0,0.0,76,0.00,CLR,,0.00,0.0,WeatherDisplay:10.37,2013-01-01 23:45:00,
2013-01-01 17:50:00,7.9,1.9,30.26,SSW,210,0.0,0.0,76,0.00,CLR,,0.00,0.0,WeatherDisplay:10.37,2013-01-01 23:50:00,
2013-01-01 17:55:00,7.6,1.9,30.27,SSW,210,0.0,0.0,77,0.00,CLR,,0.00,0.0,WeatherDisplay:10.37,2013-01-01 23:55:00,
2013-01-01 18:00:00,7.4,1.7,30.26,SSW,210,0.0,0.0,77,0.00,CLR,,0.00,0.0,WeatherDisplay:10.37,2013-01-02 00:00:00,
2013-01-01 18:05:00,7.3,1.6,30.26,SSW,210,0.0,0.0,77,0.00,CLR,,0.00,0.0,WeatherDisplay:10.37,2013-01-02 00:05:00,
2013-01-01 18:10:00,7.2,1.8,30.26,SSW,210,0.0,0.0,78,0.00,CLR,,0.00,0.0,WeatherDisplay:10.37,2013-01-02 00:10:00,
2013-01-01 18:15:00,7.0,1.6,30.26,SSW,210,0.0,0.0,78,0.00,CLR,,0.00,0.0,WeatherDisplay:10.37,2013-01-02 00:15:00,
2013-01-01 18:20:00,6.8,1.4,30.27,SSW,210,0.0,0.0,78,0.00,CLR,,0.00,0.0,WeatherDisplay:10.37,2013-01-02 00:20:00,
2013-01-01 18:25:00,6.7,1.6,30.27,SSW,210,0.0,0.0,79,0.00,CLR,,0.00,0.0,WeatherDisplay:10.37,2013-01-02 00:25:00,
2013-01-01 18:30:00,6.6,1.5,30.27,SSW,210,0.0,0.0,79,0.00,CLR,,0.00,0.0,WeatherDisplay:10.37,2013-01-02 00:30:00,
2013-01-01 18:35:00,6.6,1.7,30.27,SW,225,0.0,0.0,80,0.00,CLR,,0.00,0.0,WeatherDisplay:10.37,2013-01-02 00:35:00,
2013-01-01 18:40:00,6.7,1.8,30.27,SW,224,0.0,0.0,80,0.00,CLR,,0.00,0.0,WeatherDisplay:10.37,2013-01-02 00:40:00,
2013-01-01 18:45:00,6.8,1.9,30.27,SW,224,0.0,0.0,80,0.00,CLR,,0.00,0.0,WeatherDisplay:10.37,2013-01-02 00:45:00,
2013-01-01 18:50:00,6.9,2.0,30.27,SSW,192,0.0,0.0,80,0.00,CLR,,0.00,0.0,WeatherDisplay:10.37,2013-01-02 00:50:00,
2013-01-01 18:55:00,7.0,2.1,30.27,SSW,205,0.0,0.0,80,0.00,CLR,,0.00,0.0,WeatherDisplay:10.37,2013-01-02 00:55:00,
2013-01-01 19:00:00,7.0,2.1,30.27,SSW,206,0.0,0.0,80,0.00,CLR,,0.00,0.0,WeatherDisplay:10.37,2013-01-02 01:00:00,
2013-01-01 19:05:00,6.9,2.0,30.27,SSW,206,1.1,0.0,80,0.00,CLR,,0.00,0.0,WeatherDisplay:10.37,2013-01-02 01:05:00,
2013-01-01 19:10:00,6.8,1.9,30.27,SW,218,0.0,0.3,80,0.00,CLR,,0.00,0.0,WeatherDisplay:10.37,2013-01-02 01:10:00,
2013-01-01 19:15:00,6.8,1.9,30.27,SSW,208,0.0,0.0,80,0.00,CLR,,0.00,0.0,WeatherDisplay:10.37,2013-01-02 01:15:00,
2013-01-01 19:20:00,6.7,1.8,30.28,SSW,201,2.3,2.3,80,0.00,CLR,,0.00,0.0,WeatherDisplay:10.37,2013-01-02 01:20:00,
2013-01-01 19:25:00,6.6,1.7,30.28,South,186,0.0,0.0,80,0.00,CLR,,0.00,0.0,WeatherDisplay:10.37,2013-01-02 01:25:00,
2013-01-01 19:30:00,6.5,1.6,30.28,South,187,0.0,0.0,80,0.00,CLR,,0.00,0.0,WeatherDisplay:10.37,2013-01-02 01:30:00,
2013-01-01 19:35:00,6.4,1.8,30.27,South,187,0.0,0.0,81,0.00,CLR,,0.00,0.0,WeatherDisplay:10.37,2013-01-02 01:35:00,
2013-01-01 19:40:00,6.3,1.7,30.27,South,187,0.0,0.0,81,0.00,CLR,,0.00,0.0,WeatherDisplay:10.37,2013-01-02 01:40:00,
2013-01-01 19:45:00,6.2,1.6,30.28,South,187,0.0,0.0,81,0.00,CLR,,0.00,0.0,WeatherDisplay:10.37,2013-01-02 01:45:00,
2013-01-01 19:50:00,6.1,1.5,30.28,South,187,0.0,0.0,81,0.00,CLR,,0.00,0.0,WeatherDisplay:10.37,2013-01-02 01:50:00,
2013-01-01 19:55:00,5.9,1.3,30.27,South,186,0.0,0.0,81,0.00,CLR,,0.00,0.0,WeatherDisplay:10.37,2013-01-02 01:55:00,
2013-01-01 20:00:00,5.9,1.3,30.27,South,187,0.0,0.0,81,0.00,CLR,,0.00,0.0,WeatherDisplay:10.37,2013-01-02 02:00:00,
2013-01-01 20:05:00,5.8,1.2,30.27,South,187,0.0,0.0,81,0.00,CLR,,0.00,0.0,WeatherDisplay:10.37,2013-01-02 02:05:00,
2013-01-01 20:10:00,5.6,1.0,30.27,South,186,0.0,0.0,81,0.00,CLR,,0.00,0.0,WeatherDisplay:10.37,2013-01-02 02:10:00,
2013-01-01 20:15:00,5.6,1.0,30.27,South,187,1.1,1.1,81,0.00,CLR,,0.00,0.0,WeatherDisplay:10.37,2013-01-02 02:15:00,
2013-01-01 20:20:00,5.7,1.4,30.27,South,187,0.0,0.0,82,0.00,CLR,,0.00,0.0,WeatherDisplay:10.37,2013-01-02 02:20:00,
2013-01-01 20:25:00,5.6,1.3,30.27,South,187,0.0,0.0,82,0.00,CLR,,0.00,0.0,WeatherDisplay:10.37,2013-01-02 02:25:00,
2013-01-01 20:30:00,5.6,1.3,30.26,South,187,0.0,0.0,82,0.00,CLR,,0.00,0.0,WeatherDisplay:10.37,2013-01-02 02:30:00,
2013-01-01 20:35:00,5.5,1.2,30.26,South,186,0.0,0.0,82,0.00,CLR,,0.00,0.0,WeatherDisplay:10.37,2013-01-02 02:35:00,
2013-01-01 20:40:00,5.5,1.2,30.26,South,186,0.0,0.0,82,0.00,CLR,,0.00,0.0,WeatherDisplay:10.37,2013-01-02 02:40:00,
2013-01-01 20:45:00,5.4,1.1,30.26,South,187,0.0,0.0,82,0.00,CLR,,0.00,0.0,WeatherDisplay:10.37,2013-01-02 02:45:00,
2013-01-01 20:50:00,5.2,0.9,30.26,South,186,0.0,0.0,82,0.00,CLR,,0.00,0.0,WeatherDisplay:10.37,2013-01-02 02:50:00,
2013-01-01 20:55:00,5.1,0.8,30.26,South,187,0.0,0.0,82,0.00,CLR,,0.00,0.0,WeatherDisplay:10.37,2013-01-02 02:55:00,
2013-01-01 21:00:00,4.9,0.6,30.26,South,187,0.0,0.0,82,0.00,CLR,,0.00,0.0,WeatherDisplay:10.37,2013-01-02 03:00:00,
2013-01-01 21:05:00,4.7,0.4,30.26,South,187,0.0,0.0,82,0.00,CLR,,0.00,0.0,WeatherDisplay:10.37,2013-01-02 03:05:00,
2013-01-01 21:10:00,4.5,0.2,30.26,South,186,0.0,0.0,82,0.00,CLR,,0.00,0.0,WeatherDisplay:10.37,2013-01-02 03:10:00,
2013-01-01 21:15:00,4.8,0.5,30.25,SW,224,0.0,0.0,82,0.00,CLR,,0.00,0.0,WeatherDisplay:10.37,2013-01-02 03:15:00,
2013-01-01 21:20:00,4.7,0.4,30.25,SW,224,0.0,0.0,82,0.00,CLR,,0.00,0.0,WeatherDisplay:10.37,2013-01-02 03:20:00,
2013-01-01 21:25:00,4.5,0.2,30.25,SW,224,0.0,0.0,82,0.00,CLR,,0.00,0.0,WeatherDisplay:10.37,2013-01-02 03:25:00,
2013-01-01 21:30:00,4.4,0.1,30.25,SW,224,0.0,0.0,82,0.00,CLR,,0.00,0.0,WeatherDisplay:10.37,2013-01-02 03:30:00,
2013-01-01 21:35:00,4.2,-0.1,30.25,SW,224,0.0,0.0,82,0.00,CLR,,0.00,0.0,WeatherDisplay:10.37,2013-01-02 03:35:00,
2013-01-01 21:40:00,4.1,0.1,30.25,SW,224,0.0,0.0,83,0.00,CLR,,0.00,0.0,WeatherDisplay:10.37,2013-01-02 03:40:00,
2013-01-01 21:45:00,4.0,0.0,30.25,SW,224,0.0,0.0,83,0.00,CLR,,0.00,0.0,WeatherDisplay:10.37,2013-01-02 03:45:00,
2013-01-01 21:50:00,4.0,0.0,30.25,SW,224,0.0,0.0,83,0.00,CLR,,0.00,0.0,WeatherDisplay:10.37,2013-01-02 03:50:00,
2013-01-01 21:55:00,4.0,0.0,30.25,SW,224,0.0,0.0,83,0.00,CLR,,0.00,0.0,WeatherDisplay:10.37,2013-01-02 03:55:00,
2013-01-01 22:00:00,4.1,0.1,30.25,SW,224,0.0,0.0,83,0.00,CLR,,0.00,0.0,WeatherDisplay:10.37,2013-01-02 04:00:00,
2013-01-01 22:05:00,4.2,0.2,30.25,SW,224,0.0,0.0,83,0.00,CLR,,0.00,0.0,WeatherDisplay:10.37,2013-01-02 04:05:00,
2013-01-01 22:10:00,4.4,0.4,30.25,SW,224,1.1,1.1,83,0.00,CLR,,0.00,0.0,WeatherDisplay:10.37,2013-01-02 04:10:00,
2013-01-01 22:15:00,4.5,0.5,30.25,SW,224,0.0,0.0,83,0.00,CLR,,0.00,0.0,WeatherDisplay:10.37,2013-01-02 04:15:00,
2013-01-01 22:20:00,4.5,0.5,30.25,SW,224,0.0,0.0,83,0.00,CLR,,0.00,0.0,WeatherDisplay:10.37,2013-01-02 04:20:00,
2013-01-01 22:25:00,4.5,0.5,30.25,SW,224,0.0,0.0,83,0.00,CLR,,0.00,0.0,WeatherDisplay:10.37,2013-01-02 04:25:00,
2013-01-01 22:30:00,4.4,0.4,30.25,SW,224,0.0,0.0,83,0.00,CLR,,0.00,0.0,WeatherDisplay:10.37,2013-01-02 04:30:00,
2013-01-01 22:35:00,4.3,0.0,30.25,SW,224,0.0,0.0,82,0.00,CLR,,0.00,0.0,WeatherDisplay:10.37,2013-01-02 04:35:00,
2013-01-01 22:40:00,4.3,0.0,30.25,SW,224,0.0,0.0,82,0.00,CLR,,0.00,0.0,WeatherDisplay:10.37,2013-01-02 04:40:00,
2013-01-01 22:45:00,4.2,-0.1,30.25,SW,224,0.0,0.0,82,0.00,CLR,,0.00,0.0,WeatherDisplay:10.37,2013-01-02 04:45:00,
2013-01-01 22:50:00,4.2,-0.1,30.26,SW,224,0.0,0.0,82,0.00,CLR,,0.00,0.0,WeatherDisplay:10.37,2013-01-02 04:50:00,
2013-01-01 22:55:00,4.2,0.2,30.26,SW,224,0.0,0.0,83,0.00,CLR,,0.00,0.0,WeatherDisplay:10.37,2013-01-02 04:55:00,
2013-01-01 23:00:00,4.3,0.3,30.25,SW,224,0.0,0.0,83,0.00,CLR,,0.00,0.0,WeatherDisplay:10.37,2013-01-02 05:00:00,
2013-01-01 23:01:00,4.4,0.4,30.25,SW,224,0.0,0.0,83,0.00,CLR,,0.00,0.0,WeatherDisplay:10.37,2013-01-02 05:01:00,
2013-01-01 23:06:00,4.6,0.3,30.25,SW,224,2.3,2.3,82,0.00,CLR,,0.00,0.0,WeatherDisplay:10.37,2013-01-02 05:06:00,
2013-01-01 23:11:00,4.8,0.5,30.25,SW,224,0.0,0.0,82,0.00,CLR,,0.00,0.0,WeatherDisplay:10.37,2013-01-02 05:11:00,
2013-01-01 23:16:00,5.1,0.8,30.25,SW,224,1.1,1.1,82,0.00,CLR,,0.00,0.0,WeatherDisplay:10.37,2013-01-02 05:16:00,
2013-01-01 23:21:00,5.2,0.9,30.25,SW,224,0.0,0.0,82,0.00,CLR,,0.00,0.0,WeatherDisplay:10.37,2013-01-02 05:21:00,
2013-01-01 23:26:00,4.2,0.7,30.24,SSW,211,0.0,0.0,85,0.00,CLR,,0.00,0.0,WeatherDisplay:10.37,2013-01-02 05:26:00,
2013-01-01 23:31:00,5.6,1.0,30.24,SW,224,0.0,0.0,81,0.00,CLR,,0.00,0.0,WeatherDisplay:10.37,2013-01-02 05:31:00,
2013-01-01 23:36:00,5.9,1.6,30.24,SW,224,2.3,2.3,82,0.00,CLR,,0.00,0.0,WeatherDisplay:10.37,2013-01-02 05:36:00,
2013-01-01 23:41:00,6.0,1.4,30.24,SW,224,0.0,0.0,81,0.00,CLR,,0.00,0.0,WeatherDisplay:10.37,2013-01-02 05:41:00,
2013-01-01 23:46:00,6.2,1.6,30.24,SW,224,0.0,0.0,81,0.00,CLR,,0.00,0.0,WeatherDisplay:10.37,2013-01-02 05:46:00,
2013-01-01 23:51:00,6.5,1.9,30.24,SW,224,1.1,1.1,81,0.00,CLR,,0.00,0.0,WeatherDisplay:10.37,2013-01-02 05:51:00,
2013-01-01 23:56:00,6.8,2.2,30.24,South,174,3.5,3.5,81,0.00,CLR,,0.00,0.0,WeatherDisplay:10.37,2013-01-02 05:56:00,